Aulander, North Carolina
Current Conditions -  °F | °C
As of 12:35 PM on Monday 24 Nov 2014 (Local Time) from KASJ Reporting Station
Scattered Clouds Scattered Clouds  
Wind Chill: 71°   Ceiling: Unl
Heat Index: 71°   Visibility: 10mi
Dew Point: 61°   Wind: 6mph
Humidity: 70%   Direction: 200°SSW
Pressure: 29.8"   Gusts: 16mph
Location:  36.23°N, 77.11°W
Report Text: KASJ 241735Z AUTO 20005G14KT 10SM SCT030 SCT038 SCT110 22/16 A2980 RMK AO2 T02170161
Loading
Personal Weather Stations






























Interactive Weather Map New forecast layout! Learn more

10-Day Weather Forecast

Advertisements
Track Severe Weather on mobile